createdAt,value
2023-01-13T00:01:30.606Z,12.80
2023-01-13T00:03:57.240Z,12.80
2023-01-13T00:06:23.879Z,12.90
2023-01-13T00:08:50.508Z,12.80
2023-01-13T00:11:17.196Z,12.80
2023-01-13T00:13:43.816Z,12.80
2023-01-13T00:16:10.495Z,12.80
2023-01-13T00:18:37.154Z,12.80
2023-01-13T00:21:03.792Z,12.80
2023-01-13T00:23:30.413Z,12.90
2023-01-13T00:25:57.043Z,12.90
2023-01-13T00:28:23.653Z,12.90
2023-01-13T00:30:50.269Z,12.80
2023-01-13T00:33:22.620Z,12.90
2023-01-13T00:35:49.241Z,12.90
2023-01-13T00:38:16.062Z,12.90
2023-01-13T00:40:42.669Z,12.80
2023-01-13T00:43:09.280Z,12.80
2023-01-13T00:45:35.880Z,12.80
2023-01-13T00:48:02.498Z,12.80
2023-01-13T00:50:29.125Z,12.80
2023-01-13T00:52:55.738Z,12.80
2023-01-13T00:55:22.347Z,12.80
2023-01-13T00:57:48.967Z,12.80
2023-01-13T01:00:15.574Z,12.90
2023-01-13T01:02:42.247Z,12.80
2023-01-13T01:05:08.910Z,12.90
2023-01-13T01:07:35.527Z,12.80
2023-01-13T01:10:02.189Z,12.80
2023-01-13T01:12:28.836Z,12.80
2023-01-13T01:14:55.445Z,12.80
2023-01-13T01:17:22.062Z,12.90
2023-01-13T01:19:48.676Z,12.90
2023-01-13T01:22:15.297Z,12.80
2023-01-13T01:24:41.912Z,12.90
2023-01-13T01:27:08.553Z,12.90
2023-01-13T01:29:35.171Z,12.90
2023-01-13T01:32:01.927Z,12.80
2023-01-13T01:34:28.544Z,12.90
2023-01-13T01:36:55.181Z,12.80
2023-01-13T01:39:21.801Z,12.80
2023-01-13T01:41:48.419Z,12.80
2023-01-13T01:44:15.032Z,12.80
2023-01-13T01:46:41.757Z,12.90
2023-01-13T01:49:08.422Z,12.80
2023-01-13T01:51:35.029Z,12.80
2023-01-13T01:54:01.644Z,12.70
2023-01-13T01:56:28.256Z,12.80
2023-01-13T01:58:54.860Z,12.70
2023-01-13T02:01:21.565Z,12.80
2023-01-13T02:03:48.281Z,12.70
2023-01-13T02:06:14.922Z,12.80
2023-01-13T02:08:41.554Z,12.80
2023-01-13T02:11:08.153Z,12.80
2023-01-13T02:13:34.767Z,12.80
2023-01-13T02:16:01.384Z,12.70
2023-01-13T02:18:28.063Z,12.70
2023-01-13T02:20:54.667Z,12.70
2023-01-13T02:23:21.298Z,12.70
2023-01-13T02:25:47.926Z,12.70
2023-01-13T02:28:14.669Z,12.80
2023-01-13T02:30:41.421Z,12.80
2023-01-13T02:33:08.070Z,12.70
2023-01-13T02:35:35.787Z,12.70
2023-01-13T02:38:02.405Z,12.70
2023-01-13T02:40:29.032Z,12.70
2023-01-13T02:42:55.633Z,12.80
2023-01-13T02:45:22.245Z,12.80
2023-01-13T02:47:48.859Z,12.80
2023-01-13T02:50:15.475Z,12.70
2023-01-13T02:52:42.089Z,12.70
2023-01-13T02:55:08.713Z,12.60
2023-01-13T02:57:35.324Z,12.60
2023-01-13T03:00:01.849Z,12.70
2023-01-13T03:02:28.373Z,12.70
2023-01-13T03:04:54.906Z,12.70
2023-01-13T03:07:21.380Z,12.70
2023-01-13T03:09:47.870Z,12.70
2023-01-13T03:12:14.344Z,12.70
2023-01-13T03:14:40.811Z,12.70
2023-01-13T03:17:07.293Z,12.60
2023-01-13T03:19:33.774Z,12.60
2023-01-13T03:22:00.254Z,12.60
2023-01-13T03:24:26.769Z,12.70
2023-01-13T03:26:53.271Z,12.60
2023-01-13T03:29:19.769Z,12.70
2023-01-13T03:31:46.248Z,12.60
2023-01-13T03:34:12.720Z,12.60
2023-01-13T03:36:39.176Z,12.60
2023-01-13T03:39:05.664Z,12.60
2023-01-13T03:41:32.132Z,12.60
2023-01-13T03:43:58.626Z,12.60
2023-01-13T03:46:25.095Z,12.70
2023-01-13T03:48:51.573Z,12.70
2023-01-13T03:51:18.056Z,12.70
2023-01-13T03:53:44.526Z,12.60
2023-01-13T03:56:11.005Z,12.70
2023-01-13T03:58:37.476Z,12.70
2023-01-13T04:01:04.054Z,12.70
2023-01-13T04:03:30.670Z,12.60
2023-01-13T04:05:57.183Z,12.60
2023-01-13T04:08:23.653Z,12.60
2023-01-13T04:10:50.119Z,12.50
2023-01-13T04:13:16.613Z,12.60
2023-01-13T04:15:43.146Z,12.60
2023-01-13T04:18:09.698Z,12.60
2023-01-13T04:20:36.199Z,12.50
2023-01-13T04:23:02.657Z,12.40
2023-01-13T04:25:29.143Z,12.50
2023-01-13T04:27:55.604Z,12.50
2023-01-13T04:30:22.104Z,12.60
2023-01-13T04:32:48.571Z,12.50
2023-01-13T04:35:15.046Z,12.50
2023-01-13T04:37:46.694Z,12.50
2023-01-13T04:40:16.701Z,12.40
2023-01-13T04:42:43.191Z,12.40
2023-01-13T04:45:09.654Z,12.40
2023-01-13T04:47:36.124Z,12.50
2023-01-13T04:50:02.596Z,12.50
2023-01-13T04:52:29.082Z,12.50
2023-01-13T04:54:55.568Z,12.50
2023-01-13T04:57:22.044Z,12.50
2023-01-13T04:59:48.538Z,12.50
2023-01-13T05:02:15.102Z,12.50
2023-01-13T05:04:41.700Z,12.50
2023-01-13T05:07:08.238Z,12.50
2023-01-13T05:09:34.706Z,12.50
2023-01-13T05:12:01.201Z,12.50
2023-01-13T05:14:27.674Z,12.50
2023-01-13T05:16:54.158Z,12.40
2023-01-13T05:19:20.624Z,12.40
2023-01-13T05:21:47.108Z,12.50
2023-01-13T05:24:13.586Z,12.50
2023-01-13T05:26:40.071Z,12.40
2023-01-13T05:29:06.563Z,12.40
2023-01-13T05:31:33.136Z,12.40
2023-01-13T05:33:59.656Z,12.40
2023-01-13T05:36:26.139Z,12.50
2023-01-13T05:38:52.608Z,12.50
2023-01-13T05:41:19.103Z,12.50
2023-01-13T05:43:45.701Z,12.50
2023-01-13T05:46:12.316Z,12.50
2023-01-13T05:48:38.826Z,12.40
2023-01-13T05:51:05.340Z,12.40
2023-01-13T05:53:31.851Z,12.40
2023-01-13T05:55:58.367Z,12.50
2023-01-13T05:58:24.848Z,12.50
2023-01-13T06:00:51.375Z,12.40
2023-01-13T06:03:17.935Z,12.40
2023-01-13T06:05:44.436Z,12.40
2023-01-13T06:08:10.901Z,12.40
2023-01-13T06:10:37.392Z,12.40
2023-01-13T06:13:03.861Z,12.40
2023-01-13T06:15:30.346Z,12.40
2023-01-13T06:17:56.823Z,12.30
2023-01-13T06:20:23.298Z,12.40
2023-01-13T06:22:49.794Z,12.40
2023-01-13T06:25:16.383Z,12.40
2023-01-13T06:27:43.126Z,12.30
2023-01-13T06:30:09.644Z,12.30
2023-01-13T06:32:36.149Z,12.30
2023-01-13T06:35:05.495Z,12.30
2023-01-13T06:37:32.144Z,12.30
2023-01-13T06:39:58.654Z,12.30
2023-01-13T06:42:25.164Z,12.30
2023-01-13T06:44:51.656Z,12.30
2023-01-13T06:47:18.170Z,12.40
2023-01-13T06:49:44.642Z,12.30
2023-01-13T06:52:11.116Z,12.40
2023-01-13T06:54:37.601Z,12.40
2023-01-13T06:57:04.083Z,12.30
2023-01-13T06:59:30.728Z,12.40
2023-01-13T07:01:57.400Z,12.40
2023-01-13T07:04:23.972Z,12.40
2023-01-13T07:06:50.459Z,12.40
2023-01-13T07:09:16.948Z,12.30
2023-01-13T07:11:43.426Z,12.30
2023-01-13T07:14:09.896Z,12.20
2023-01-13T07:16:36.464Z,12.30
2023-01-13T07:19:02.973Z,12.30
2023-01-13T07:21:29.484Z,12.30
2023-01-13T07:23:55.948Z,12.30
2023-01-13T07:26:22.410Z,12.30
2023-01-13T07:28:48.905Z,12.30
2023-01-13T07:31:15.422Z,12.30
2023-01-13T07:33:41.906Z,12.30
2023-01-13T07:36:08.375Z,12.30
2023-01-13T07:38:34.895Z,12.40
2023-01-13T07:41:01.364Z,12.30
2023-01-13T07:43:27.830Z,12.30
2023-01-13T07:45:54.370Z,12.30
2023-01-13T07:48:20.871Z,12.30
2023-01-13T07:50:47.347Z,12.30
2023-01-13T07:53:13.821Z,12.30
2023-01-13T07:55:40.292Z,12.20
2023-01-13T07:58:06.795Z,12.20
2023-01-13T08:00:33.302Z,12.20
2023-01-13T08:02:59.902Z,12.20
2023-01-13T08:05:26.437Z,12.20
2023-01-13T08:07:52.976Z,12.20
2023-01-13T08:10:19.442Z,12.30
2023-01-13T08:12:50.806Z,12.20
2023-01-13T08:15:22.357Z,12.30
2023-01-13T08:17:52.878Z,12.30
2023-01-13T08:20:19.356Z,12.30
2023-01-13T08:22:45.868Z,12.30
2023-01-13T08:25:12.348Z,12.20
2023-01-13T08:27:38.928Z,12.30
2023-01-13T08:30:05.440Z,12.20
2023-01-13T08:32:31.936Z,12.30
2023-01-13T08:34:58.486Z,12.20
2023-01-13T08:37:24.950Z,12.20
2023-01-13T08:39:51.446Z,12.20
2023-01-13T08:42:17.920Z,12.20
2023-01-13T08:44:44.382Z,12.20
2023-01-13T08:47:10.878Z,12.20
2023-01-13T08:49:37.352Z,12.20
2023-01-13T08:52:03.823Z,12.30
2023-01-13T08:54:30.342Z,12.30
2023-01-13T08:56:56.887Z,12.30
2023-01-13T08:59:23.438Z,12.20
2023-01-13T09:01:50.062Z,12.20
2023-01-13T09:04:16.680Z,12.30
2023-01-13T09:06:43.207Z,12.20
2023-01-13T09:09:09.708Z,12.20
2023-01-13T09:11:36.233Z,12.20
2023-01-13T09:14:03.566Z,12.20
2023-01-13T09:16:30.141Z,12.30
2023-01-13T09:18:56.636Z,12.10
2023-01-13T09:21:23.128Z,12.20
2023-01-13T09:23:49.621Z,12.20
2023-01-13T09:26:16.108Z,12.10
2023-01-13T09:28:42.606Z,12.00
2023-01-13T09:31:09.104Z,12.10
2023-01-13T09:33:35.622Z,12.10
2023-01-13T09:36:02.107Z,12.20
2023-01-13T09:38:28.611Z,12.20
2023-01-13T09:40:55.102Z,12.20
2023-01-13T09:43:21.579Z,12.10
2023-01-13T09:45:48.097Z,12.10
2023-01-13T09:48:14.606Z,12.20
2023-01-13T09:50:41.112Z,12.20
2023-01-13T09:53:07.601Z,12.30
2023-01-13T09:55:34.087Z,12.30
2023-01-13T09:58:00.552Z,12.30
2023-01-13T10:00:27.057Z,12.30
2023-01-13T10:02:53.525Z,12.30
2023-01-13T10:05:19.985Z,12.20
2023-01-13T10:07:46.468Z,12.10
2023-01-13T10:10:12.951Z,12.20
2023-01-13T10:12:39.426Z,12.30
2023-01-13T10:15:05.933Z,12.30
2023-01-13T10:17:32.397Z,12.30
2023-01-13T10:19:58.905Z,12.20
2023-01-13T10:22:25.410Z,12.30
2023-01-13T10:24:51.906Z,12.30
2023-01-13T10:27:18.392Z,12.30
2023-01-13T10:29:44.870Z,12.30
2023-01-13T10:32:11.340Z,12.20
2023-01-13T10:34:37.811Z,12.20
2023-01-13T10:37:04.299Z,12.10
2023-01-13T10:39:30.775Z,12.20
2023-01-13T10:41:57.272Z,12.30
2023-01-13T10:44:23.764Z,12.20
2023-01-13T10:46:50.307Z,12.30
2023-01-13T10:49:16.800Z,12.20
2023-01-13T10:51:43.281Z,12.30
2023-01-13T10:54:09.765Z,12.20
2023-01-13T10:56:36.242Z,12.20
2023-01-13T10:59:02.724Z,12.20
2023-01-13T11:01:29.352Z,12.20
2023-01-13T11:03:55.852Z,12.20
2023-01-13T11:06:22.326Z,12.30
2023-01-13T11:08:48.819Z,12.30
2023-01-13T11:11:15.290Z,12.30
2023-01-13T11:13:41.783Z,12.30
2023-01-13T11:16:08.299Z,12.30
2023-01-13T11:18:34.806Z,12.30
2023-01-13T11:21:01.298Z,12.30
2023-01-13T11:23:27.777Z,12.30
2023-01-13T11:25:54.274Z,12.20
2023-01-13T11:28:20.769Z,12.20
2023-01-13T11:30:48.507Z,12.20
2023-01-13T11:33:16.477Z,12.20
2023-01-13T11:35:42.969Z,12.20
2023-01-13T11:38:09.465Z,12.30
2023-01-13T11:40:35.945Z,12.30
2023-01-13T11:43:02.430Z,12.30
2023-01-13T11:45:28.904Z,12.30
2023-01-13T11:47:55.379Z,12.30
2023-01-13T11:50:21.859Z,12.30
2023-01-13T11:52:48.352Z,12.20
2023-01-13T11:55:14.843Z,12.30
2023-01-13T11:57:41.358Z,12.30
2023-01-13T12:00:07.828Z,12.30
2023-01-13T12:02:34.319Z,12.30
2023-01-13T12:05:00.826Z,12.20
2023-01-13T12:07:27.311Z,12.20
2023-01-13T12:09:53.821Z,12.30
2023-01-13T12:12:20.287Z,12.20
2023-01-13T12:14:46.800Z,12.20
2023-01-13T12:17:13.294Z,12.20
2023-01-13T12:19:39.783Z,12.20
2023-01-13T12:22:06.293Z,12.20
2023-01-13T12:24:32.772Z,12.20
2023-01-13T12:26:59.233Z,12.30
2023-01-13T12:29:25.734Z,12.20
2023-01-13T12:31:52.249Z,12.20
2023-01-13T12:34:18.750Z,12.20
2023-01-13T12:36:45.236Z,12.20
2023-01-13T12:39:11.714Z,12.10
2023-01-13T12:41:38.182Z,12.10
2023-01-13T12:44:04.679Z,12.10
2023-01-13T12:46:31.165Z,12.20
2023-01-13T12:48:57.649Z,12.20
2023-01-13T12:51:24.189Z,12.20
2023-01-13T12:53:50.693Z,12.20
2023-01-13T12:56:17.179Z,12.20
2023-01-13T12:58:43.646Z,12.20
2023-01-13T13:01:10.199Z,12.30
2023-01-13T13:03:36.701Z,12.20
2023-01-13T13:06:03.183Z,12.20
2023-01-13T13:08:29.694Z,12.10
2023-01-13T13:10:56.177Z,12.20
2023-01-13T13:13:22.644Z,12.10
2023-01-13T13:15:49.139Z,12.10
2023-01-13T13:18:15.601Z,12.20
2023-01-13T13:20:42.091Z,12.10
2023-01-13T13:23:08.575Z,12.10
2023-01-13T13:25:35.081Z,12.10
2023-01-13T13:28:01.561Z,12.20
2023-01-13T13:30:28.081Z,12.20
2023-01-13T13:32:54.560Z,12.20
2023-01-13T13:35:21.037Z,12.20
2023-01-13T13:37:53.147Z,12.20
2023-01-13T13:40:19.620Z,12.20
2023-01-13T13:42:46.111Z,12.10
2023-01-13T13:45:12.598Z,12.10
2023-01-13T13:47:39.091Z,12.10
2023-01-13T13:50:05.607Z,12.20
2023-01-13T13:52:32.156Z,12.10
2023-01-13T13:54:58.643Z,12.10
2023-01-13T13:57:25.100Z,12.20
2023-01-13T13:59:51.576Z,12.10
2023-01-13T14:02:18.105Z,12.20
2023-01-13T14:04:44.674Z,12.20
2023-01-13T14:07:11.207Z,12.20
2023-01-13T14:09:37.631Z,12.20
2023-01-13T14:12:04.086Z,12.20
2023-01-13T14:14:30.557Z,12.10
2023-01-13T14:16:57.065Z,12.10
2023-01-13T14:19:23.547Z,12.20
2023-01-13T14:21:50.050Z,12.20
2023-01-13T14:24:16.533Z,12.20
2023-01-13T14:26:43.010Z,12.20
2023-01-13T14:29:09.502Z,12.20
2023-01-13T14:31:35.994Z,12.20
2023-01-13T14:34:02.470Z,12.10
2023-01-13T14:36:28.939Z,12.10
2023-01-13T14:38:55.429Z,12.10
2023-01-13T14:41:21.886Z,12.20
2023-01-13T14:43:48.368Z,12.20
2023-01-13T14:46:14.870Z,12.20
2023-01-13T14:48:41.373Z,12.20
2023-01-13T14:51:07.850Z,12.20
2023-01-13T14:53:34.343Z,12.20
2023-01-13T14:56:00.811Z,12.10
2023-01-13T14:58:29.123Z,12.20
2023-01-13T15:00:55.613Z,12.10
2023-01-13T15:03:22.123Z,12.10
2023-01-13T15:05:48.609Z,12.20
2023-01-13T15:08:15.091Z,12.10
2023-01-13T15:10:41.577Z,12.10
2023-01-13T15:13:08.067Z,12.20
2023-01-13T15:15:34.546Z,12.20
2023-01-13T15:18:01.046Z,12.20
2023-01-13T15:20:27.519Z,12.10
2023-01-13T15:22:54.009Z,12.10
2023-01-13T15:25:20.480Z,12.10
2023-01-13T15:27:46.985Z,12.10
2023-01-13T15:30:13.535Z,12.10
2023-01-13T15:32:40.045Z,12.10
2023-01-13T15:35:06.516Z,12.10
2023-01-13T15:37:32.985Z,12.20
2023-01-13T15:39:59.452Z,12.10
2023-01-13T15:42:25.916Z,12.20
2023-01-13T15:44:52.379Z,12.20
2023-01-13T15:47:18.849Z,12.10
2023-01-13T15:49:45.312Z,12.20
2023-01-13T15:52:11.817Z,12.10
2023-01-13T15:54:38.291Z,12.20
2023-01-13T15:57:04.761Z,12.10
2023-01-13T15:59:31.224Z,12.00
2023-01-13T16:01:57.680Z,12.10
2023-01-13T16:04:24.148Z,12.10
2023-01-13T16:06:50.638Z,12.20
2023-01-13T16:09:17.150Z,12.10
2023-01-13T16:11:43.622Z,12.20
2023-01-13T16:14:10.119Z,12.20
2023-01-13T16:16:36.636Z,12.20
2023-01-13T16:19:03.133Z,12.20
2023-01-13T16:21:29.632Z,12.10
2023-01-13T16:23:56.115Z,12.20
2023-01-13T16:26:22.594Z,12.20
2023-01-13T16:28:49.090Z,12.20
2023-01-13T16:31:15.582Z,12.20
2023-01-13T16:33:42.106Z,12.20
2023-01-13T16:36:11.008Z,12.10
2023-01-13T16:38:39.311Z,12.10
2023-01-13T16:41:06.124Z,12.00
2023-01-13T16:43:32.617Z,12.00
2023-01-13T16:45:59.128Z,12.10
2023-01-13T16:48:29.298Z,12.10
2023-01-13T16:50:55.789Z,12.20
2023-01-13T16:53:22.259Z,12.10
2023-01-13T16:55:48.736Z,12.10
2023-01-13T16:58:15.206Z,12.20
2023-01-13T17:00:41.802Z,12.10
2023-01-13T17:03:08.305Z,12.20
2023-01-13T17:05:34.813Z,12.20
2023-01-13T17:08:01.319Z,12.20
2023-01-13T17:10:27.814Z,12.20
2023-01-13T17:12:54.293Z,12.20
2023-01-13T17:15:20.776Z,12.20
2023-01-13T17:17:47.265Z,12.10
2023-01-13T17:20:13.767Z,12.10
2023-01-13T17:22:41.334Z,12.10
2023-01-13T17:25:07.865Z,12.20
2023-01-13T17:27:34.326Z,12.20
2023-01-13T17:30:00.810Z,12.10
2023-01-13T17:32:27.278Z,12.10
2023-01-13T17:34:53.775Z,12.20
2023-01-13T17:37:20.265Z,12.20
2023-01-13T17:39:46.783Z,12.20
2023-01-13T17:42:13.333Z,12.20
2023-01-13T17:44:39.822Z,12.20
2023-01-13T17:47:06.318Z,12.10
2023-01-13T17:49:32.792Z,12.20
2023-01-13T17:51:59.263Z,12.10
2023-01-13T17:54:25.763Z,12.10
2023-01-13T17:56:52.241Z,12.10
2023-01-13T17:59:18.736Z,12.20
2023-01-13T18:01:45.301Z,12.10
2023-01-13T18:04:11.822Z,12.10
2023-01-13T18:06:38.299Z,12.10
2023-01-13T18:09:04.762Z,12.10
2023-01-13T18:11:31.245Z,12.10
2023-01-13T18:13:57.730Z,12.10
2023-01-13T18:16:24.246Z,12.20
2023-01-13T18:18:51.288Z,12.20
2023-01-13T18:21:18.097Z,12.20
2023-01-13T18:23:44.579Z,12.20
2023-01-13T18:26:11.051Z,12.20
2023-01-13T18:28:37.519Z,12.20
2023-01-13T18:31:04.041Z,12.20
2023-01-13T18:33:30.536Z,12.20
2023-01-13T18:35:57.029Z,12.10
2023-01-13T18:38:23.527Z,12.10
2023-01-13T18:40:49.998Z,12.10
2023-01-13T18:43:16.480Z,12.20
2023-01-13T18:45:42.969Z,12.20
2023-01-13T18:48:09.453Z,12.10
2023-01-13T18:50:35.969Z,12.20
2023-01-13T18:53:02.437Z,12.10
2023-01-13T18:55:28.927Z,12.20
2023-01-13T18:57:55.403Z,12.10
2023-01-13T19:00:21.944Z,12.10
2023-01-13T19:02:48.481Z,12.10
2023-01-13T19:05:15.054Z,12.10
2023-01-13T19:07:41.550Z,12.10
2023-01-13T19:10:08.052Z,12.10
2023-01-13T19:12:34.529Z,12.20
2023-01-13T19:15:01.036Z,12.10
2023-01-13T19:17:27.497Z,12.10
2023-01-13T19:19:53.969Z,12.10
2023-01-13T19:22:20.455Z,12.10
2023-01-13T19:24:46.926Z,12.10
2023-01-13T19:27:13.419Z,12.10
2023-01-13T19:29:43.077Z,12.00
2023-01-13T19:32:17.234Z,12.10
2023-01-13T19:34:44.012Z,12.10
2023-01-13T19:37:10.510Z,12.10
2023-01-13T19:39:36.978Z,12.20
2023-01-13T19:42:03.459Z,12.10
2023-01-13T19:44:29.926Z,12.10
2023-01-13T19:46:56.417Z,12.10
2023-01-13T19:49:22.881Z,12.10
2023-01-13T19:51:49.355Z,12.10
2023-01-13T19:54:15.822Z,12.20
2023-01-13T19:56:42.316Z,12.10
2023-01-13T19:59:08.799Z,12.10
2023-01-13T20:01:35.398Z,12.10
2023-01-13T20:04:01.909Z,12.20
2023-01-13T20:06:28.417Z,12.20
2023-01-13T20:08:54.887Z,12.20
2023-01-13T20:11:21.414Z,12.20
2023-01-13T20:13:47.881Z,12.10
2023-01-13T20:16:14.391Z,12.10
2023-01-13T20:18:40.906Z,12.10
2023-01-13T20:21:07.400Z,12.10
2023-01-13T20:23:33.880Z,12.10
2023-01-13T20:26:00.387Z,12.10
2023-01-13T20:28:26.851Z,12.20
2023-01-13T20:30:53.355Z,12.20
2023-01-13T20:33:19.819Z,12.20
2023-01-13T20:35:46.306Z,12.10
2023-01-13T20:38:12.776Z,12.10
2023-01-13T20:40:39.265Z,12.10
2023-01-13T20:43:05.726Z,12.10
2023-01-13T20:45:32.203Z,12.10
2023-01-13T20:47:58.682Z,12.10
2023-01-13T20:50:25.165Z,12.10
2023-01-13T20:52:53.445Z,12.10
2023-01-13T20:55:19.972Z,12.10
2023-01-13T20:57:46.435Z,12.20
2023-01-13T21:00:12.887Z,12.10
2023-01-13T21:02:39.385Z,12.10
2023-01-13T21:05:05.847Z,12.00
2023-01-13T21:07:32.308Z,12.10
2023-01-13T21:09:58.765Z,12.10
2023-01-13T21:12:25.262Z,12.00
2023-01-13T21:14:51.740Z,12.10
2023-01-13T21:17:18.225Z,12.10
2023-01-13T21:19:44.746Z,12.10
2023-01-13T21:22:11.216Z,12.10
2023-01-13T21:24:37.685Z,12.10
2023-01-13T21:27:04.164Z,12.10
2023-01-13T21:29:30.638Z,12.10
2023-01-13T21:31:57.188Z,12.10
2023-01-13T21:34:23.676Z,12.10
2023-01-13T21:36:50.161Z,12.00
2023-01-13T21:39:16.662Z,12.00
2023-01-13T21:41:43.146Z,12.10
2023-01-13T21:44:09.597Z,12.10
2023-01-13T21:46:36.069Z,12.10
2023-01-13T21:49:02.535Z,12.00
2023-01-13T21:51:29.041Z,12.00
2023-01-13T21:53:55.515Z,12.00
2023-01-13T21:56:21.981Z,12.00
2023-01-13T21:58:48.459Z,12.00
2023-01-13T22:01:15.048Z,12.00
2023-01-13T22:03:41.557Z,12.00
2023-01-13T22:06:08.074Z,12.00
2023-01-13T22:08:34.551Z,12.10
2023-01-13T22:11:01.043Z,12.10
2023-01-13T22:13:27.501Z,12.10
2023-01-13T22:15:54.008Z,12.10
2023-01-13T22:18:20.472Z,12.10
2023-01-13T22:20:46.981Z,12.10
2023-01-13T22:23:13.460Z,12.00
2023-01-13T22:25:39.992Z,12.00
2023-01-13T22:28:06.487Z,12.10
2023-01-13T22:30:32.964Z,12.10
2023-01-13T22:32:59.415Z,12.10
2023-01-13T22:35:25.877Z,12.10
2023-01-13T22:37:52.341Z,12.10
2023-01-13T22:40:18.821Z,12.10
2023-01-13T22:42:45.353Z,12.00
2023-01-13T22:45:11.832Z,12.00
2023-01-13T22:47:41.574Z,12.00
2023-01-13T22:50:08.052Z,12.00
2023-01-13T22:52:34.564Z,12.10
2023-01-13T22:55:01.051Z,12.10
2023-01-13T22:57:35.320Z,12.10
2023-01-13T23:00:02.691Z,12.10
2023-01-13T23:02:29.169Z,12.20
2023-01-13T23:04:55.700Z,12.10
2023-01-13T23:07:22.214Z,12.10
2023-01-13T23:09:48.693Z,12.00
2023-01-13T23:12:15.179Z,12.00
2023-01-13T23:14:41.664Z,12.00
2023-01-13T23:17:08.162Z,12.00
2023-01-13T23:19:34.627Z,12.00
2023-01-13T23:22:01.092Z,12.00
2023-01-13T23:24:27.579Z,12.00
2023-01-13T23:26:54.062Z,12.10
2023-01-13T23:29:20.561Z,12.00
2023-01-13T23:31:47.081Z,12.10
2023-01-13T23:34:13.553Z,12.10
2023-01-13T23:36:40.049Z,12.10
2023-01-13T23:39:06.518Z,12.00
2023-01-13T23:41:33.016Z,12.10
2023-01-13T23:43:59.489Z,12.10
2023-01-13T23:46:26.071Z,12.00
2023-01-13T23:48:52.559Z,12.10
2023-01-13T23:51:19.039Z,12.10
2023-01-13T23:53:45.509Z,12.00
2023-01-13T23:56:12.011Z,12.00
2023-01-13T23:58:38.473Z,11.90
